Time;durP1;ratioP1;P1;durP2;ratioP2;P2;SDS_P1;SDS_P2;PMS_P1;PMS_P2;Temp;Humidity;BMP_temperature;BMP_pressure;BME280_temperature;BME280_humidity;BME280_pressure;Samples;Min_cycle;Max_cycle;Signal;HPM_P1;HPM_P2
2021/09/09 00:01:16;;;;;;;23.65;15.60;;;18.70;99.90;;;;;;5048791;28;20389;-57
2021/09/09 00:03:42;;;;;;;22.05;15.18;;;18.70;99.90;;;;;;5049269;28;20393;-57
2021/09/09 00:06:08;;;;;;;22.77;15.50;;;18.60;99.90;;;;;;5049014;28;20962;-57
2021/09/09 00:08:33;;;;;;;23.70;15.30;;;17.60;99.90;;;;;;5049298;28;20393;-57
2021/09/09 00:10:59;;;;;;;22.48;15.45;;;18.60;99.90;;;;;;5049476;28;20417;-57
2021/09/09 00:13:25;;;;;;;24.25;15.95;;;18.70;99.90;;;;;;5060903;28;20491;-57
2021/09/09 00:15:50;;;;;;;24.67;16.30;;;18.70;99.90;;;;;;5069357;28;20422;-57
2021/09/09 00:18:16;;;;;;;23.90;15.27;;;18.70;99.90;;;;;;5057195;28;20409;-57
2021/09/09 00:20:42;;;;;;;23.77;16.10;;;18.70;99.90;;;;;;5049608;28;20450;-57
2021/09/09 00:23:08;;;;;;;22.05;16.77;;;18.60;99.90;;;;;;5048525;28;20488;-57
2021/09/09 00:25:34;;;;;;;25.17;16.40;;;18.60;99.90;;;;;;5048856;28;20602;-57
2021/09/09 00:28:00;;;;;;;25.90;16.55;;;18.50;99.90;;;;;;5049610;28;20408;-57
2021/09/09 00:30:25;;;;;;;25.50;16.63;;;18.40;99.90;;;;;;5057382;28;20495;-57
2021/09/09 00:32:51;;;;;;;25.08;16.10;;;18.40;99.90;;;;;;5049265;28;20411;-57
2021/09/09 00:35:17;;;;;;;25.05;16.48;;;18.40;99.90;;;;;;5048184;28;20936;-57
2021/09/09 00:37:43;;;;;;;24.87;16.80;;;18.40;99.90;;;;;;5055774;28;20887;-57
2021/09/09 00:40:09;;;;;;;25.70;16.80;;;18.40;99.90;;;;;;5062438;28;20401;-57
2021/09/09 00:42:35;;;;;;;25.10;17.08;;;18.40;99.90;;;;;;5058341;28;20467;-57
2021/09/09 00:45:01;;;;;;;24.03;16.30;;;18.40;99.90;;;;;;5048799;28;20405;-57
2021/09/09 00:47:26;;;;;;;27.83;17.97;;;18.40;99.90;;;;;;5048135;28;20396;-57
2021/09/09 00:49:52;;;;;;;28.45;17.88;;;18.40;99.90;;;;;;5069027;28;20877;-57
2021/09/09 00:52:17;;;;;;;25.00;17.20;;;18.40;99.90;;;;;;5068112;28;20387;-57
2021/09/09 00:54:45;;;;;;;29.80;17.60;;;18.30;99.90;;;;;;5050088;28;20405;-57
2021/09/09 00:57:14;;;;;;;24.27;16.70;;;18.20;99.90;;;;;;5048198;28;20392;-57
2021/09/09 00:59:39;;;;;;;25.75;17.17;;;18.10;99.90;;;;;;5061966;28;20401;-57
2021/09/09 01:02:05;;;;;;;26.98;17.55;;;18.10;99.90;;;;;;5061614;28;20431;-57
2021/09/09 01:04:31;;;;;;;25.43;17.70;;;18.00;99.90;;;;;;5055535;28;20952;-57
2021/09/09 01:06:59;;;;;;;27.40;17.13;;;18.00;99.90;;;;;;5048583;28;20412;-57
2021/09/09 01:09:25;;;;;;;29.27;17.92;;;18.10;99.90;;;;;;5048494;28;20413;-57
2021/09/09 01:11:51;;;;;;;27.67;17.50;;;18.00;99.90;;;;;;5055274;28;20893;-57
2021/09/09 01:14:18;;;;;;;25.15;17.10;;;18.00;99.90;;;;;;5067771;28;20896;-57
2021/09/09 01:16:46;;;;;;;28.27;18.90;;;18.00;99.90;;;;;;5068156;28;20432;-57
2021/09/09 01:19:12;;;;;;;28.42;18.90;;;17.90;99.90;;;;;;5063764;28;20409;-57
2021/09/09 01:21:38;;;;;;;28.20;19.60;;;17.90;99.90;;;;;;5058200;28;20396;-57
2021/09/09 01:24:18;;;;;;;25.42;18.35;;;17.90;99.90;;;;;;5058472;28;21073;-57
2021/09/09 01:26:52;;;;;;;27.80;18.30;;;17.80;99.90;;;;;;5056558;28;20401;-57
2021/09/09 01:29:19;;;;;;;28.93;19.17;;;17.80;99.90;;;;;;5047821;28;20475;-57
2021/09/09 01:31:45;;;;;;;27.83;19.10;;;17.70;99.90;;;;;;5048675;28;20566;-57
2021/09/09 01:34:11;;;;;;;27.20;19.10;;;17.70;99.90;;;;;;5047851;28;20401;-57
2021/09/09 01:36:37;;;;;;;28.83;18.93;;;17.70;99.90;;;;;;5051304;28;20735;-57
2021/09/09 01:39:04;;;;;;;28.27;19.33;;;17.80;99.90;;;;;;5052727;28;20447;-57
2021/09/09 01:41:29;;;;;;;28.77;19.38;;;17.80;99.90;;;;;;5050422;28;20445;-57
2021/09/09 01:43:55;;;;;;;28.93;20.20;;;18.00;99.90;;;;;;5052525;28;20397;-60
2021/09/09 01:46:21;;;;;;;28.27;19.87;;;17.90;99.90;;;;;;5050859;28;20547;-57
2021/09/09 01:48:47;;;;;;;26.25;18.67;;;18.00;99.90;;;;;;5051628;28;20472;-57
2021/09/09 01:51:12;;;;;;;29.15;17.58;;;18.00;99.90;;;;;;5068260;28;20502;-57
2021/09/09 01:53:38;;;;;;;27.00;18.30;;;18.00;99.90;;;;;;5054895;28;20458;-57
2021/09/09 01:56:04;;;;;;;25.10;17.67;;;18.00;99.90;;;;;;5051933;28;20732;-57
2021/09/09 01:58:29;;;;;;;27.47;18.20;;;18.00;99.90;;;;;;5063598;28;20482;-57
2021/09/09 02:00:57;;;;;;;27.02;17.95;;;18.00;99.90;;;;;;5070407;28;20388;-57
2021/09/09 02:03:24;;;;;;;25.43;17.80;;;18.00;99.90;;;;;;5051014;28;20385;-57
2021/09/09 02:05:50;;;;;;;24.65;18.08;;;18.00;99.90;;;;;;5052031;28;20424;-57
2021/09/09 02:08:15;;;;;;;27.95;17.75;;;18.10;99.90;;;;;;5067839;28;20400;-57
2021/09/09 02:10:41;;;;;;;25.90;18.23;;;18.10;99.90;;;;;;5069459;28;20423;-57
2021/09/09 02:13:06;;;;;;;26.53;18.87;;;18.10;99.90;;;;;;5055938;28;20452;-57
2021/09/09 02:15:33;;;;;;;25.93;18.10;;;18.10;99.90;;;;;;5050968;28;20393;-57
2021/09/09 02:17:59;;;;;;;24.15;17.25;;;18.10;99.90;;;;;;5051549;28;20460;-57
2021/09/09 02:20:25;;;;;;;26.20;17.70;;;18.00;99.90;;;;;;5050637;28;20416;-57
2021/09/09 02:22:51;;;;;;;27.15;17.65;;;17.90;99.90;;;;;;5051491;28;20467;-57
2021/09/09 02:25:16;;;;;;;27.40;18.08;;;17.80;99.90;;;;;;5050511;28;20386;-57
2021/09/09 02:27:42;;;;;;;27.10;19.20;;;17.70;99.90;;;;;;5051454;28;20404;-57
2021/09/09 02:30:08;;;;;;;28.00;19.65;;;17.70;99.90;;;;;;5051114;28;20487;-57
2021/09/09 02:32:34;;;;;;;27.48;18.92;;;17.70;99.90;;;;;;5051031;28;20419;-57
2021/09/09 02:35:00;;;;;;;26.77;18.52;;;17.70;99.90;;;;;;5051275;28;20406;-57
2021/09/09 02:37:25;;;;;;;25.67;18.00;;;17.70;99.90;;;;;;5048347;28;20389;-57
2021/09/09 02:39:51;;;;;;;25.42;18.08;;;17.60;99.90;;;;;;5067310;28;20529;-57
2021/09/09 02:42:16;;;;;;;29.30;18.33;;;17.60;99.90;;;;;;5064066;28;20400;-57
2021/09/09 02:44:42;;;;;;;24.17;17.30;;;17.60;99.90;;;;;;5051808;28;20409;-57
2021/09/09 02:47:08;;;;;;;27.02;17.98;;;17.60;99.90;;;;;;5058186;28;20899;-57
2021/09/09 02:49:34;;;;;;;28.17;18.27;;;17.00;99.90;;;;;;5064253;28;20441;-57
2021/09/09 02:51:59;;;;;;;26.43;17.93;;;17.70;99.90;;;;;;5063220;28;20746;-57
2021/09/09 02:54:25;;;;;;;26.03;18.30;;;17.50;99.90;;;;;;5063446;28;20784;-56
2021/09/09 02:56:51;;;;;;;28.15;19.23;;;17.50;99.90;;;;;;5062006;28;20391;-56
2021/09/09 02:59:16;;;;;;;26.65;18.70;;;17.40;99.90;;;;;;5062441;28;20904;-56
2021/09/09 03:01:42;;;;;;;27.37;17.40;;;17.40;99.90;;;;;;5064079;28;20408;-56
2021/09/09 03:04:07;;;;;;;26.52;18.48;;;17.30;99.90;;;;;;5065052;28;20414;-56
2021/09/09 03:06:33;;;;;;;27.77;19.02;;;17.40;99.90;;;;;;5062735;28;20404;-56
2021/09/09 03:08:59;;;;;;;26.40;17.53;;;17.30;99.90;;;;;;5057565;28;20771;-56
2021/09/09 03:11:25;;;;;;;26.20;18.17;;;17.40;99.90;;;;;;5055600;28;20403;-56
2021/09/09 03:13:50;;;;;;;28.95;18.98;;;17.30;99.90;;;;;;5066416;28;20403;-56
2021/09/09 03:16:16;;;;;;;29.33;18.42;;;17.40;99.90;;;;;;5066902;28;20786;-56
2021/09/09 03:18:42;;;;;;;24.95;17.98;;;17.30;99.90;;;;;;5060819;28;20411;-56
2021/09/09 03:21:08;;;;;;;26.60;17.60;;;17.20;99.90;;;;;;5048053;28;20410;-56
2021/09/09 03:23:33;;;;;;;29.25;18.75;;;17.20;99.90;;;;;;5064933;28;20400;-56
2021/09/09 03:25:59;;;;;;;25.55;17.48;;;17.20;99.90;;;;;;5063480;28;21071;-56
2021/09/09 03:28:25;;;;;;;25.63;17.93;;;17.20;99.90;;;;;;5062513;28;20414;-56
2021/09/09 03:30:50;;;;;;;30.42;19.13;;;17.30;99.90;;;;;;5059808;28;20407;-56
2021/09/09 03:33:16;;;;;;;30.05;17.92;;;17.20;99.90;;;;;;5063191;28;20400;-56
2021/09/09 03:35:42;;;;;;;27.67;17.90;;;17.20;99.90;;;;;;5062914;28;20397;-56
2021/09/09 03:38:09;;;;;;;24.50;16.95;;;17.10;99.90;;;;;;5062842;28;20408;-56
2021/09/09 03:40:35;;;;;;;27.05;17.40;;;17.10;99.90;;;;;;5062638;28;20471;-56
2021/09/09 03:43:02;;;;;;;24.67;16.60;;;17.20;99.90;;;;;;5063724;28;20411;-56
2021/09/09 03:45:27;;;;;;;25.98;17.15;;;17.20;99.90;;;;;;5064084;28;20896;-56
2021/09/09 03:47:53;;;;;;;26.40;17.10;;;17.20;99.90;;;;;;5065452;28;20415;-56
2021/09/09 03:50:18;;;;;;;24.07;16.20;;;17.20;99.90;;;;;;5063592;28;20443;-56
2021/09/09 03:52:44;;;;;;;25.77;17.25;;;17.20;99.90;;;;;;5066165;28;20470;-56
2021/09/09 03:55:10;;;;;;;29.35;17.73;;;17.20;99.90;;;;;;5062218;28;20395;-56
2021/09/09 03:57:36;;;;;;;23.75;16.73;;;17.20;99.90;;;;;;5062552;28;20430;-56
2021/09/09 04:00:03;;;;;;;24.00;16.40;;;17.20;99.90;;;;;;5064058;28;20809;-56
2021/09/09 04:02:29;;;;;;;24.30;16.00;;;17.20;99.90;;;;;;5061898;28;20487;-56
2021/09/09 04:04:55;;;;;;;24.52;17.33;;;17.30;99.90;;;;;;5062886;28;20965;-56
2021/09/09 04:07:20;;;;;;;26.52;17.17;;;17.30;99.90;;;;;;5061469;28;20399;-56
2021/09/09 04:09:46;;;;;;;27.13;16.80;;;17.40;99.90;;;;;;5064187;28;20408;-56
2021/09/09 04:12:11;;;;;;;22.63;15.83;;;17.30;99.90;;;;;;5067254;28;20742;-56
2021/09/09 04:14:37;;;;;;;24.77;16.45;;;17.30;99.90;;;;;;5063706;28;20474;-56
2021/09/09 04:17:03;;;;;;;23.95;15.38;;;17.30;99.90;;;;;;5055780;28;20420;-56
2021/09/09 04:19:29;;;;;;;21.08;14.63;;;17.20;99.90;;;;;;5064917;28;20469;-55
2021/09/09 04:21:54;;;;;;;23.40;15.75;;;17.30;99.90;;;;;;5061190;28;20415;-54
2021/09/09 04:24:20;;;;;;;22.13;15.33;;;17.30;99.90;;;;;;5068468;28;20944;-54
2021/09/09 04:26:47;;;;;;;21.55;14.80;;;17.40;99.90;;;;;;5068063;28;20403;-54
2021/09/09 04:29:12;;;;;;;21.23;14.73;;;17.40;99.90;;;;;;5048869;28;20435;-56
2021/09/09 04:31:39;;;;;;;23.88;16.30;;;17.40;99.90;;;;;;5049158;28;20488;-53
2021/09/09 04:34:05;;;;;;;23.55;15.25;;;17.40;99.90;;;;;;5058118;28;20820;-54
2021/09/09 04:36:30;;;;;;;24.50;15.52;;;17.40;99.90;;;;;;5048453;28;20393;-53
2021/09/09 04:38:56;;;;;;;24.90;15.93;;;17.50;99.90;;;;;;5050358;28;20458;-55
2021/09/09 04:41:22;;;;;;;24.98;15.40;;;17.40;99.90;;;;;;5067279;28;20415;-53
2021/09/09 04:43:48;;;;;;;21.90;15.47;;;17.30;99.90;;;;;;5049139;28;20377;-54
2021/09/09 04:46:13;;;;;;;21.40;14.97;;;17.30;99.90;;;;;;5047987;28;20459;-56
2021/09/09 04:48:39;;;;;;;22.27;14.90;;;17.30;99.90;;;;;;5048975;28;20393;-54
2021/09/09 04:51:05;;;;;;;23.77;14.40;;;17.40;99.90;;;;;;5062623;28;20597;-53
2021/09/09 04:53:30;;;;;;;20.90;14.17;;;17.40;99.90;;;;;;5049131;28;20399;-53
2021/09/09 04:55:56;;;;;;;21.80;14.70;;;17.50;99.90;;;;;;5049449;28;20528;-53
2021/09/09 04:58:22;;;;;;;20.30;14.87;;;17.50;99.90;;;;;;5067791;28;20835;-55
2021/09/09 05:00:48;;;;;;;22.02;14.65;;;17.60;99.90;;;;;;5048873;28;20955;-54
2021/09/09 05:03:14;;;;;;;20.25;13.68;;;17.50;99.90;;;;;;5053812;28;20398;-56
2021/09/09 05:05:39;;;;;;;22.08;14.57;;;17.50;99.90;;;;;;5048077;28;20397;-53
2021/09/09 05:08:05;;;;;;;22.27;14.35;;;17.50;99.90;;;;;;5048369;28;20477;-54
2021/09/09 05:10:31;;;;;;;21.37;14.40;;;17.50;99.90;;;;;;5049526;28;20905;-53
2021/09/09 05:12:56;;;;;;;19.25;13.90;;;17.50;99.90;;;;;;5053123;28;20390;-53
2021/09/09 05:15:22;;;;;;;21.13;14.40;;;17.40;99.90;;;;;;5052113;28;20373;-53
2021/09/09 05:17:48;;;;;;;22.93;14.50;;;17.40;99.90;;;;;;5052561;28;20897;-53
2021/09/09 05:20:13;;;;;;;22.50;14.60;;;17.50;99.90;;;;;;5055407;28;20465;-56
2021/09/09 05:22:39;;;;;;;20.23;14.33;;;17.50;99.90;;;;;;5072370;28;20459;-53
2021/09/09 05:25:05;;;;;;;20.40;13.83;;;17.60;99.90;;;;;;5072914;28;20398;-53
2021/09/09 05:27:31;;;;;;;20.45;14.88;;;17.60;99.90;;;;;;5071741;28;20381;-53
2021/09/09 05:29:57;;;;;;;20.63;14.40;;;17.60;99.90;;;;;;5072385;28;20407;-53
2021/09/09 05:32:22;;;;;;;21.73;15.02;;;17.60;99.90;;;;;;5072566;28;20728;-53
2021/09/09 05:34:48;;;;;;;23.07;14.93;;;17.80;99.90;;;;;;5072924;28;20386;-53
2021/09/09 05:37:14;;;;;;;21.52;14.80;;;17.90;99.90;;;;;;5072233;28;20403;-56
2021/09/09 05:39:39;;;;;;;27.57;14.37;;;18.00;99.90;;;;;;5071174;28;20385;-53
2021/09/09 05:42:05;;;;;;;20.63;14.13;;;18.00;99.90;;;;;;5072390;28;20459;-53
2021/09/09 05:44:31;;;;;;;19.67;13.25;;;18.00;99.90;;;;;;5072008;28;20462;-53
2021/09/09 05:46:57;;;;;;;22.65;14.52;;;18.00;99.90;;;;;;5072854;28;20396;-53
2021/09/09 05:49:22;;;;;;;19.90;13.07;;;18.10;99.90;;;;;;5062337;28;20806;-53
2021/09/09 05:51:48;;;;;;;21.00;14.63;;;18.20;99.90;;;;;;5071478;28;20406;-53
2021/09/09 05:54:13;;;;;;;20.63;13.63;;;18.50;99.90;;;;;;5071762;28;20387;-56
2021/09/09 05:56:39;;;;;;;19.33;12.90;;;18.70;99.90;;;;;;5071102;28;20467;-54
2021/09/09 05:59:05;;;;;;;22.97;14.27;;;18.90;99.90;;;;;;5070711;28;20502;-54
2021/09/09 06:01:31;;;;;;;20.40;13.37;;;19.00;99.90;;;;;;5071643;28;20378;-54
2021/09/09 06:03:57;;;;;;;20.30;14.20;;;19.40;99.90;;;;;;5071747;28;20383;-54
2021/09/09 06:06:25;;;;;;;20.77;13.27;;;19.60;99.90;;;;;;5070829;28;20384;-54
2021/09/09 06:08:51;;;;;;;19.77;13.80;;;19.90;99.90;;;;;;5072079;28;20439;-54
2021/09/09 06:11:17;;;;;;;19.27;12.90;;;19.90;99.90;;;;;;5070683;28;20744;-56
2021/09/09 06:13:43;;;;;;;20.08;13.00;;;19.90;99.90;;;;;;5071718;28;20459;-54
2021/09/09 06:16:08;;;;;;;20.88;12.90;;;19.80;99.90;;;;;;5071835;28;20415;-54
2021/09/09 06:18:34;;;;;;;24.75;12.85;;;20.10;99.90;;;;;;5070611;28;20555;-54
2021/09/09 06:21:01;;;;;;;17.48;11.85;;;21.20;99.90;;;;;;5070626;28;20474;-54
2021/09/09 06:23:29;;;;;;;20.88;11.73;;;22.70;99.90;;;;;;5069652;28;20435;-54
2021/09/09 06:25:54;;;;;;;16.67;11.80;;;24.20;99.90;;;;;;5071012;28;20375;-54
2021/09/09 06:28:20;;;;;;;19.60;13.30;;;25.50;99.90;;;;;;5070517;28;20380;-54
2021/09/09 06:30:46;;;;;;;20.37;11.93;;;26.40;99.90;;;;;;5071562;28;20407;-54
2021/09/09 06:33:11;;;;;;;17.43;12.30;;;27.20;99.90;;;;;;5071637;28;20384;-54
2021/09/09 06:35:38;;;;;;;16.17;12.00;;;27.80;99.90;;;;;;5068933;28;20388;-55
2021/09/09 06:38:04;;;;;;;18.42;11.88;;;28.40;99.90;;;;;;5071532;28;20387;-54
2021/09/09 06:40:29;;;;;;;17.83;12.32;;;28.40;99.90;;;;;;5069840;28;20770;-54
2021/09/09 06:42:55;;;;;;;16.60;13.20;;;29.00;99.90;;;;;;5071370;28;20376;-55
2021/09/09 06:45:21;;;;;;;20.38;12.18;;;29.50;98.10;;;;;;5070395;28;20392;-54
2021/09/09 06:47:47;;;;;;;18.40;13.10;;;30.10;96.40;;;;;;5070906;28;20375;-55
2021/09/09 06:50:12;;;;;;;16.90;11.65;;;30.90;94.30;;;;;;5070828;28;20885;-55
2021/09/09 06:52:38;;;;;;;19.65;12.05;;;30.40;93.00;;;;;;5069892;28;20937;-55
2021/09/09 06:55:05;;;;;;;18.00;12.43;;;31.00;92.00;;;;;;5070831;28;20380;-54
2021/09/09 06:57:30;;;;;;;17.47;11.70;;;30.50;91.90;;;;;;5070559;28;20384;-53
2021/09/09 06:59:56;;;;;;;17.10;12.33;;;29.20;93.50;;;;;;5070890;28;20379;-55
2021/09/09 07:02:21;;;;;;;17.87;12.17;;;28.10;96.40;;;;;;5069808;28;20845;-54
2021/09/09 07:04:47;;;;;;;18.23;12.00;;;28.00;98.00;;;;;;5070762;28;20715;-57
2021/09/09 07:07:13;;;;;;;16.83;11.20;;;28.90;97.00;;;;;;5070411;28;20813;-57
2021/09/09 07:09:38;;;;;;;17.65;12.90;;;30.30;94.50;;;;;;5069607;28;20778;-56
2021/09/09 07:12:04;;;;;;;16.35;11.80;;;31.10;92.60;;;;;;5070820;28;20742;-55
2021/09/09 07:14:30;;;;;;;14.38;10.65;;;31.10;91.70;;;;;;5069414;28;20380;-56
2021/09/09 07:16:55;;;;;;;12.70;10.83;;;31.90;89.30;;;;;;5070118;28;20416;-56
2021/09/09 07:19:21;;;;;;;12.47;8.87;;;32.10;84.00;;;;;;5069841;28;20461;-56
2021/09/09 07:21:50;;;;;;;13.20;9.35;;;31.90;81.90;;;;;;5070262;28;20884;-55
2021/09/09 07:24:17;;;;;;;11.02;8.23;;;30.90;86.40;;;;;;5070171;28;20475;-58
2021/09/09 07:26:48;;;;;;;11.95;8.02;;;30.20;85.70;;;;;;5070110;28;20382;-55
2021/09/09 07:29:14;;;;;;;12.70;8.77;;;30.70;84.90;;;;;;5069706;28;20965;-55
2021/09/09 07:31:44;;;;;;;13.43;8.10;;;31.00;84.40;;;;;;5069134;28;20412;-55
2021/09/09 07:34:10;;;;;;;13.18;9.15;;;31.30;81.80;;;;;;5070126;28;20384;-56
2021/09/09 07:36:37;;;;;;;14.00;8.25;;;31.40;80.70;;;;;;5069401;28;20941;-55
2021/09/09 07:39:03;;;;;;;12.45;8.43;;;32.30;77.00;;;;;;5069920;28;20490;-55
2021/09/09 07:41:29;;;;;;;13.27;7.80;;;32.50;75.70;;;;;;5069210;28;20376;-56
2021/09/09 07:43:55;;;;;;;13.05;8.35;;;32.70;73.70;;;;;;5069984;28;20392;-56
2021/09/09 07:46:21;;;;;;;12.10;8.30;;;32.90;73.50;;;;;;5068813;28;20438;-56
2021/09/09 07:48:46;;;;;;;10.17;7.67;;;33.10;72.20;;;;;;5069818;28;20418;-56
2021/09/09 07:51:14;;;;;;;11.20;7.80;;;33.10;70.40;;;;;;5069969;28;20448;-56
2021/09/09 07:53:40;;;;;;;11.63;7.80;;;33.30;68.80;;;;;;5068962;28;20371;-56
2021/09/09 07:56:05;;;;;;;10.40;7.30;;;33.50;68.70;;;;;;5069942;28;20448;-56
2021/09/09 07:58:31;;;;;;;12.80;7.82;;;34.10;66.00;;;;;;5067457;28;20387;-56
2021/09/09 08:00:57;;;;;;;11.77;7.40;;;34.20;64.40;;;;;;5069544;28;20383;-56
2021/09/09 08:03:22;;;;;;;11.23;8.00;;;34.20;63.00;;;;;;5069386;28;20394;-56
2021/09/09 08:05:48;;;;;;;12.43;8.00;;;33.90;63.80;;;;;;5069076;28;20384;-56
2021/09/09 08:08:14;;;;;;;13.85;8.00;;;33.70;62.70;;;;;;5069674;28;20458;-56
2021/09/09 08:10:39;;;;;;;12.95;10.93;;;33.10;63.70;;;;;;5068384;28;20430;-55
2021/09/09 08:13:05;;;;;;;14.85;11.65;;;32.40;64.60;;;;;;5069319;28;20474;-55
2021/09/09 08:15:31;;;;;;;12.30;10.47;;;31.30;67.60;;;;;;5068731;28;20465;-55
2021/09/09 08:17:56;;;;;;;12.40;10.50;;;30.50;70.90;;;;;;5069476;28;20411;-55
2021/09/09 08:20:22;;;;;;;11.60;10.40;;;29.90;73.70;;;;;;5067151;28;20487;-56
2021/09/09 08:22:48;;;;;;;12.47;9.80;;;29.20;76.20;;;;;;5068984;28;20382;-55
2021/09/09 08:25:13;;;;;;;12.57;10.10;;;29.30;75.00;;;;;;5069124;28;20467;-56
2021/09/09 08:27:39;;;;;;;11.47;9.50;;;29.30;77.80;;;;;;5068187;28;20418;-55
2021/09/09 08:30:06;;;;;;;12.35;9.00;;;30.50;77.30;;;;;;5069058;28;20912;-56
2021/09/09 08:32:32;;;;;;;15.00;9.90;;;32.40;72.10;;;;;;5067685;28;20384;-56
2021/09/09 08:34:58;;;;;;;11.60;7.77;;;33.00;67.60;;;;;;5069389;28;20394;-56
2021/09/09 08:37:24;;;;;;;11.13;7.40;;;33.90;64.30;;;;;;5068260;28;20379;-56
2021/09/09 08:39:51;;;;;;;12.37;7.40;;;33.80;64.00;;;;;;5069242;28;20376;-56
2021/09/09 08:42:18;;;;;;;9.90;6.95;;;34.30;62.50;;;;;;5068806;28;20500;-56
2021/09/09 08:44:45;;;;;;;13.45;7.95;;;34.80;59.90;;;;;;5067081;28;20380;-56
2021/09/09 08:47:11;;;;;;;10.32;7.72;;;35.00;58.80;;;;;;5068749;28;20396;-56
2021/09/09 08:49:37;;;;;;;11.80;7.72;;;34.80;58.00;;;;;;5068233;28;20408;-56
2021/09/09 08:52:04;;;;;;;15.23;8.27;;;34.10;59.90;;;;;;5068504;28;20407;-56
2021/09/09 08:54:31;;;;;;;14.30;8.50;;;34.20;59.80;;;;;;5068120;28;20375;-56
2021/09/09 08:56:58;;;;;;;12.60;7.45;;;35.10;58.30;;;;;;5068580;28;20918;-56
2021/09/09 08:59:23;;;;;;;13.38;8.70;;;35.40;57.70;;;;;;5067472;28;20460;-56
2021/09/09 09:02:09;;;;;;;12.30;8.23;;;36.50;56.50;;;;;;5068027;28;20407;-56
2021/09/09 09:07:58;;;;;;;9.80;7.88;;;36.30;54.50;;;;;;5068520;28;20794;-56
2021/09/09 09:10:25;;;;;;;15.50;7.50;;;35.00;56.80;;;;;;5067498;28;20404;-57
2021/09/09 09:12:50;;;;;;;10.40;7.70;;;35.60;55.50;;;;;;5068649;28;20384;-56
2021/09/09 09:15:17;;;;;;;12.90;7.90;;;36.10;55.00;;;;;;5068012;28;20437;-56
2021/09/09 09:18:08;;;;;;;9.25;7.22;;;35.70;55.20;;;;;;5067601;28;20777;-57
2021/09/09 09:20:46;;;;;;;12.18;7.60;;;36.30;54.20;;;;;;5068143;28;20501;-56
2021/09/09 09:23:14;;;;;;;12.05;7.43;;;36.60;53.00;;;;;;5068714;28;20386;-57
2021/09/09 09:25:50;;;;;;;14.35;10.48;;;36.80;52.80;;;;;;5067711;28;20415;-57
2021/09/09 09:28:36;;;;;;;12.40;7.90;;;37.30;51.30;;;;;;5068228;28;20383;-57
2021/09/09 09:31:14;;;;;;;10.45;7.10;;;37.60;51.40;;;;;;5048623;28;20493;-57
2021/09/09 09:33:45;;;;;;;9.55;6.97;;;37.90;49.60;;;;;;5047639;28;21006;-57
2021/09/09 09:36:35;;;;;;;11.40;7.23;;;37.90;49.40;;;;;;5057084;28;20529;-57
2021/09/09 09:39:12;;;;;;;11.65;7.20;;;37.40;50.30;;;;;;5067953;28;20403;-57
2021/09/09 09:41:40;;;;;;;10.75;7.70;;;36.90;50.20;;;;;;5067505;28;20487;-57
2021/09/09 09:44:10;;;;;;;12.18;8.23;;;36.90;50.70;;;;;;5065458;28;20423;-57
2021/09/09 09:46:39;;;;;;;12.63;8.40;;;37.30;50.30;;;;;;5067452;28;20400;-57
2021/09/09 09:49:18;;;;;;;12.38;7.32;;;37.60;50.20;;;;;;5065463;28;20858;-57
2021/09/09 09:51:46;;;;;;;12.15;7.97;;;37.70;50.20;;;;;;5067571;28;20416;-56
2021/09/09 09:54:14;;;;;;;12.50;8.20;;;36.60;50.00;;;;;;5067826;28;20415;-57
2021/09/09 09:56:41;;;;;;;12.50;7.60;;;36.40;50.60;;;;;;5067547;28;20470;-57
2021/09/09 09:59:07;;;;;;;11.63;7.45;;;36.60;51.00;;;;;;5071312;28;20380;-57
2021/09/09 10:01:35;;;;;;;11.80;7.40;;;37.80;50.40;;;;;;5070918;28;20390;-56
2021/09/09 10:04:09;;;;;;;9.90;7.10;;;38.60;48.50;;;;;;5071035;28;20386;-56
2021/09/09 10:06:35;;;;;;;13.65;7.60;;;37.90;49.40;;;;;;5070630;28;20418;-59
2021/09/09 10:09:02;;;;;;;12.55;7.65;;;38.10;49.20;;;;;;5071620;28;20415;-59
2021/09/09 10:11:29;;;;;;;12.18;8.20;;;38.60;48.80;;;;;;5070504;28;20392;-59
2021/09/09 10:13:56;;;;;;;14.45;11.00;;;39.00;47.80;;;;;;5070779;28;20390;-59
2021/09/09 10:16:24;;;;;;;14.88;13.35;;;39.20;47.00;;;;;;5069548;28;20391;-59
2021/09/09 10:18:50;;;;;;;17.45;11.73;;;38.00;48.10;;;;;;5071619;28;20376;-58
2021/09/09 10:21:38;;;;;;;10.93;7.75;;;36.40;50.40;;;;;;5070955;28;20467;-58
2021/09/09 10:24:41;;;;;;;11.93;10.60;;;34.80;52.70;;;;;;5071403;28;20390;-58
2021/09/09 10:27:18;;;;;;;13.43;11.30;;;33.00;55.50;;;;;;5066380;28;20417;-58
2021/09/09 10:29:47;;;;;;;12.27;10.50;;;32.90;56.20;;;;;;5070549;28;20403;-58
2021/09/09 10:32:36;;;;;;;14.00;10.90;;;33.80;55.80;;;;;;5071663;28;20380;-58
2021/09/09 10:35:18;;;;;;;12.77;10.40;;;34.70;54.80;;;;;;5068008;28;20407;-58
2021/09/09 10:37:46;;;;;;;12.95;11.00;;;35.50;53.10;;;;;;5070596;28;20383;-58
2021/09/09 10:40:32;;;;;;;11.40;9.80;;;36.00;52.60;;;;;;5069934;28;20724;-58
2021/09/09 10:43:03;;;;;;;12.40;10.55;;;35.40;53.30;;;;;;5071078;28;20470;-58
2021/09/09 10:45:35;;;;;;;12.00;10.75;;;34.50;54.70;;;;;;5070271;28;20405;-58
2021/09/09 10:48:02;;;;;;;12.40;11.10;;;34.10;54.40;;;;;;5071053;28;20399;-58
2021/09/09 10:50:28;;;;;;;13.70;11.27;;;33.50;55.50;;;;;;5070146;28;20458;-58
2021/09/09 10:53:03;;;;;;;12.73;11.18;;;33.90;56.40;;;;;;5070954;28;20399;-58
2021/09/09 10:55:30;;;;;;;13.70;11.73;;;34.50;54.90;;;;;;5069487;28;20387;-58
2021/09/09 10:58:20;;;;;;;14.05;11.00;;;34.00;55.50;;;;;;5070031;28;20506;-58
2021/09/09 11:01:05;;;;;;;13.57;10.95;;;33.70;55.70;;;;;;5069841;28;20392;-58
2021/09/09 11:03:43;;;;;;;12.50;10.47;;;33.70;56.40;;;;;;5067185;28;20384;-58
2021/09/09 11:06:14;;;;;;;12.43;10.80;;;34.50;56.80;;;;;;5066501;28;20811;-58
2021/09/09 11:08:42;;;;;;;11.85;10.30;;;35.00;54.80;;;;;;5068699;28;20982;-58
2021/09/09 11:11:14;;;;;;;10.90;9.80;;;35.50;54.70;;;;;;5067586;28;20482;-59
2021/09/09 11:13:40;;;;;;;13.05;10.63;;;36.30;53.00;;;;;;5069330;28;20542;-58
2021/09/09 11:16:23;;;;;;;15.40;10.32;;;36.40;52.80;;;;;;5070210;28;20778;-58
2021/09/09 11:18:50;;;;;;;11.88;10.35;;;36.00;52.00;;;;;;5067175;28;20445;-59
2021/09/09 11:21:21;;;;;;;11.75;9.60;;;35.60;53.50;;;;;;5069504;28;20445;-58
2021/09/09 11:23:48;;;;;;;11.93;10.07;;;35.40;53.50;;;;;;5068852;28;20452;-58
2021/09/09 11:26:15;;;;;;;11.55;9.90;;;34.70;54.30;;;;;;5070311;28;20376;-58
2021/09/09 11:28:41;;;;;;;12.88;11.60;;;34.10;54.90;;;;;;5069219;28;20530;-58
2021/09/09 11:31:09;;;;;;;11.13;9.90;;;33.30;56.60;;;;;;5070344;28;20400;-58
2021/09/09 11:33:57;;;;;;;14.40;10.70;;;33.20;56.90;;;;;;5069119;28;20437;-58
2021/09/09 11:36:42;;;;;;;12.80;10.60;;;33.10;57.60;;;;;;5069854;28;20419;-58
2021/09/09 11:39:14;;;;;;;14.93;10.88;;;32.50;59.10;;;;;;5069449;28;20396;-58
2021/09/09 11:41:42;;;;;;;13.90;10.93;;;32.40;59.60;;;;;;5068668;28;20380;-57
2021/09/09 11:44:10;;;;;;;13.37;11.07;;;32.40;59.30;;;;;;5068540;28;20395;-58
2021/09/09 11:46:49;;;;;;;11.73;10.52;;;32.10;60.50;;;;;;5067221;28;20468;-58
2021/09/09 11:49:16;;;;;;;12.10;10.13;;;31.40;61.80;;;;;;5069945;28;20395;-56
2021/09/09 11:51:44;;;;;;;12.60;10.77;;;31.30;63.00;;;;;;5068792;28;20480;-56
2021/09/09 11:54:19;;;;;;;12.87;11.17;;;31.40;63.10;;;;;;5068397;28;20392;-56
2021/09/09 11:56:49;;;;;;;11.98;10.35;;;31.30;63.50;;;;;;5068805;28;20453;-54
2021/09/09 11:59:19;;;;;;;14.10;9.93;;;31.00;64.60;;;;;;5069797;28;20375;-55
2021/09/09 12:02:06;;;;;;;12.63;10.90;;;31.30;62.90;;;;;;5069221;28;20810;-57
2021/09/09 12:04:42;;;;;;;13.43;10.80;;;31.10;63.30;;;;;;5068913;28;20387;-57
2021/09/09 12:07:15;;;;;;;13.90;10.85;;;30.90;63.70;;;;;;5069335;28;20942;-56
2021/09/09 12:09:52;;;;;;;13.20;11.02;;;30.90;64.70;;;;;;5068506;28;21008;-56
2021/09/09 12:12:18;;;;;;;11.63;9.63;;;30.70;68.20;;;;;;5069373;28;20376;-56
2021/09/09 12:14:43;;;;;;;13.30;9.52;;;30.40;67.60;;;;;;5068692;28;20383;-58
2021/09/09 12:17:13;;;;;;;11.23;8.80;;;30.20;66.00;;;;;;5068877;28;20499;-56
2021/09/09 12:19:59;;;;;;;13.50;8.82;;;30.20;68.30;;;;;;5067706;28;20486;-56
2021/09/09 12:22:51;;;;;;;14.45;8.45;;;30.20;68.10;;;;;;5068854;28;20383;-56
2021/09/09 12:25:17;;;;;;;11.90;9.30;;;30.10;70.60;;;;;;5069193;28;20828;-56
2021/09/09 12:28:16;;;;;;;10.23;8.60;;;30.10;72.70;;;;;;5068324;28;20474;-57
2021/09/09 12:30:47;;;;;;;10.00;9.00;;;30.10;71.10;;;;;;5055665;28;20424;-57
2021/09/09 12:33:22;;;;;;;10.93;8.20;;;30.10;73.60;;;;;;5068569;28;20491;-56
2021/09/09 12:36:01;;;;;;;10.52;8.57;;;29.90;72.80;;;;;;5068812;28;20380;-56
2021/09/09 12:38:33;;;;;;;11.25;9.18;;;29.90;71.40;;;;;;5068730;28;20387;-57